Time;durP1;ratioP1;P1;durP2;ratioP2;P2;SDS_P1;SDS_P2;PMS_P1;PMS_P2;Temp;Humidity;BMP_temperature;BMP_pressure;BME280_temperature;BME280_humidity;BME280_pressure;Samples;Min_cycle;Max_cycle;Signal;HPM_P1;HPM_P2
2023/12/10 00:00:43;;;;;;;74.05;40.70;;;2.80;99.90;;;;;;4971777;28;20065;-77
2023/12/10 00:03:09;;;;;;;75.05;41.75;;;2.80;99.90;;;;;;4972516;28;20043;-76
2023/12/10 00:05:35;;;;;;;81.18;43.10;;;2.80;99.90;;;;;;4972512;28;20031;-77
2023/12/10 00:08:01;;;;;;;79.85;41.40;;;2.90;99.90;;;;;;4972476;28;20029;-79
2023/12/10 00:10:26;;;;;;;78.78;40.15;;;2.90;99.90;;;;;;4967885;28;20046;-77
2023/12/10 00:12:52;;;;;;;77.00;39.13;;;2.90;99.90;;;;;;4972585;28;20081;-78
2023/12/10 00:15:18;;;;;;;78.60;37.78;;;2.90;99.90;;;;;;4972830;28;20449;-78
2023/12/10 00:17:44;;;;;;;89.22;41.30;;;2.80;99.90;;;;;;4975174;28;20033;-76
2023/12/10 00:20:10;;;;;;;72.10;35.95;;;2.70;99.90;;;;;;4981584;28;20042;-80
2023/12/10 00:22:36;;;;;;;79.38;39.97;;;2.70;99.90;;;;;;4958688;28;20397;-77
2023/12/10 00:25:02;;;;;;;76.32;40.10;;;2.70;99.90;;;;;;4976282;28;20026;-78
2023/12/10 00:27:28;;;;;;;83.28;40.97;;;2.80;99.90;;;;;;4976202;28;20450;-78
2023/12/10 00:29:54;;;;;;;72.65;38.55;;;2.70;99.90;;;;;;4976315;28;20027;-78
2023/12/10 00:32:20;;;;;;;75.63;39.67;;;2.80;99.90;;;;;;4976001;28;20039;-78
2023/12/10 00:34:46;;;;;;;73.85;38.30;;;2.80;99.90;;;;;;4975932;28;20041;-79
2023/12/10 00:37:12;;;;;;;72.88;38.75;;;2.80;99.90;;;;;;4976070;28;20023;-78
2023/12/10 00:39:38;;;;;;;65.63;35.42;;;2.80;99.90;;;;;;4975605;28;20023;-78
2023/12/10 00:42:04;;;;;;;64.03;35.60;;;2.80;99.90;;;;;;4982221;28;20034;-77
2023/12/10 00:44:30;;;;;;;71.72;38.20;;;2.90;99.90;;;;;;4961235;28;20027;-78
2023/12/10 00:46:56;;;;;;;65.80;36.22;;;2.90;99.90;;;;;;4975929;28;20098;-78
2023/12/10 00:49:22;;;;;;;74.38;38.60;;;2.80;99.90;;;;;;4975639;28;20030;-78
2023/12/10 00:51:48;;;;;;;71.28;37.10;;;2.70;99.90;;;;;;4979857;28;20030;-76
2023/12/10 00:54:14;;;;;;;73.88;34.15;;;2.50;99.90;;;;;;4972829;28;20033;-75
2023/12/10 00:56:41;;;;;;;75.90;38.17;;;2.50;99.90;;;;;;4942293;28;20028;-78
2023/12/10 00:59:08;;;;;;;81.25;39.20;;;2.50;99.90;;;;;;4975475;28;20498;-74
2023/12/10 01:01:34;;;;;;;76.13;39.92;;;2.50;99.90;;;;;;4975333;28;20487;-76
2023/12/10 01:04:00;;;;;;;72.18;37.35;;;2.60;99.90;;;;;;4975669;28;20026;-79
2023/12/10 01:06:26;;;;;;;70.22;36.38;;;2.60;99.90;;;;;;4975224;28;20031;-77
2023/12/10 01:08:52;;;;;;;85.45;41.53;;;2.60;99.90;;;;;;4973778;28;20027;-78
2023/12/10 01:11:17;;;;;;;66.45;35.60;;;2.70;99.90;;;;;;4974960;28;20051;-77
2023/12/10 01:13:43;;;;;;;76.75;37.85;;;2.60;99.90;;;;;;4975604;28;20054;-76
2023/12/10 01:16:12;;;;;;;84.95;38.65;;;2.60;99.90;;;;;;4975179;28;20027;-79
2023/12/10 01:18:38;;;;;;;82.70;39.13;;;2.60;99.90;;;;;;4975552;28;20065;-75
2023/12/10 01:21:09;;;;;;;84.18;43.45;;;2.60;99.90;;;;;;4957675;28;20065;-78
2023/12/10 01:23:38;;;;;;;85.47;38.72;;;2.60;99.90;;;;;;4975482;28;20027;-78
2023/12/10 01:26:06;;;;;;;81.35;38.38;;;2.60;99.90;;;;;;4973752;28;20030;-77
2023/12/10 01:28:33;;;;;;;69.05;36.47;;;2.70;99.90;;;;;;4973767;28;20458;-75
2023/12/10 01:30:59;;;;;;;56.95;32.58;;;2.70;99.90;;;;;;4974985;28;20014;-79
2023/12/10 01:33:25;;;;;;;62.92;31.77;;;2.70;99.90;;;;;;4974908;28;20054;-79
2023/12/10 01:35:51;;;;;;;58.70;32.97;;;2.60;99.90;;;;;;4974948;28;20494;-79
2023/12/10 01:38:17;;;;;;;65.97;34.75;;;2.60;99.90;;;;;;4967396;28;20023;-74
2023/12/10 01:40:43;;;;;;;65.78;35.22;;;2.60;99.90;;;;;;4974760;28;20244;-78
2023/12/10 01:43:11;;;;;;;70.20;35.90;;;2.60;99.90;;;;;;4973970;28;20035;-78
2023/12/10 01:45:37;;;;;;;67.40;36.40;;;2.60;99.90;;;;;;4968340;28;20093;-78
2023/12/10 01:48:06;;;;;;;79.90;37.47;;;2.60;99.90;;;;;;4974245;28;20026;-78
2023/12/10 01:50:34;;;;;;;81.93;39.53;;;2.70;99.90;;;;;;4974290;28;20019;-78
2023/12/10 01:53:02;;;;;;;67.93;34.20;;;2.60;99.90;;;;;;4969892;28;20031;-78
2023/12/10 01:55:28;;;;;;;77.55;39.28;;;2.50;99.90;;;;;;4968233;28;20081;-77
2023/12/10 01:57:54;;;;;;;70.35;35.58;;;2.50;99.90;;;;;;4974589;28;20082;-78
2023/12/10 02:00:21;;;;;;;69.07;36.28;;;2.60;99.90;;;;;;4974353;28;20018;-77
2023/12/10 02:02:47;;;;;;;69.10;35.25;;;2.60;99.90;;;;;;4974451;28;20070;-76
2023/12/10 02:05:13;;;;;;;63.35;35.63;;;2.60;99.90;;;;;;4974419;28;20031;-75
2023/12/10 02:07:44;;;;;;;71.43;37.25;;;2.60;99.90;;;;;;4974185;28;20074;-75
2023/12/10 02:10:10;;;;;;;76.10;39.13;;;2.70;99.90;;;;;;4984136;28;20053;-78
2023/12/10 02:12:37;;;;;;;78.03;35.83;;;2.70;99.90;;;;;;4985133;28;20027;-78
2023/12/10 02:15:16;;;;;;;67.57;34.70;;;2.60;99.90;;;;;;4983296;28;20085;-77
2023/12/10 02:17:42;;;;;;;74.20;35.53;;;2.60;99.90;;;;;;4973766;28;20029;-77
2023/12/10 02:20:11;;;;;;;72.97;37.22;;;2.60;99.90;;;;;;4974188;28;20034;-75
2023/12/10 02:22:52;;;;;;;68.25;36.53;;;2.50;99.90;;;;;;4967181;28;20447;-77
2023/12/10 02:25:31;;;;;;;64.35;34.08;;;2.40;99.90;;;;;;4958524;28;20023;-78
2023/12/10 02:27:58;;;;;;;64.97;32.97;;;2.30;99.90;;;;;;4955431;28;20100;-76
2023/12/10 02:30:25;;;;;;;67.28;33.90;;;2.20;99.90;;;;;;4953885;28;20016;-78
2023/12/10 02:32:51;;;;;;;70.13;34.53;;;2.20;99.90;;;;;;4956935;28;20114;-77
2023/12/10 02:35:17;;;;;;;62.92;31.65;;;2.10;99.90;;;;;;4959040;28;20094;-77
2023/12/10 02:37:43;;;;;;;64.03;33.75;;;2.10;99.90;;;;;;4956096;28;20042;-78
2023/12/10 02:40:09;;;;;;;67.93;34.75;;;2.20;99.90;;;;;;4954683;28;20070;-76
2023/12/10 02:42:35;;;;;;;65.45;35.30;;;2.20;99.90;;;;;;4958316;28;20439;-79
2023/12/10 02:45:01;;;;;;;78.38;36.58;;;2.20;99.90;;;;;;4957777;28;20019;-79
2023/12/10 02:47:27;;;;;;;76.70;35.85;;;2.20;99.90;;;;;;4956545;28;20058;-78
2023/12/10 02:49:53;;;;;;;62.53;33.40;;;2.30;99.90;;;;;;4947337;28;20047;-79
2023/12/10 02:52:22;;;;;;;64.95;33.97;;;2.30;99.90;;;;;;4953089;28;20039;-78
2023/12/10 02:54:48;;;;;;;79.78;34.92;;;2.30;99.90;;;;;;4956641;28;20015;-75
2023/12/10 02:57:14;;;;;;;72.95;36.15;;;2.30;99.90;;;;;;4959064;28;20027;-78
2023/12/10 02:59:40;;;;;;;68.30;35.88;;;2.30;99.90;;;;;;4955063;28;20027;-78
2023/12/10 03:02:06;;;;;;;79.15;35.17;;;2.30;99.90;;;;;;4957889;28;20058;-79
2023/12/10 03:04:32;;;;;;;78.18;37.50;;;2.40;99.90;;;;;;4957038;28;20061;-75
2023/12/10 03:06:58;;;;;;;107.28;44.53;;;2.50;99.90;;;;;;4958872;28;20034;-78
2023/12/10 03:09:24;;;;;;;80.80;37.95;;;2.50;99.90;;;;;;4956129;28;20027;-76
2023/12/10 03:11:50;;;;;;;83.82;44.33;;;2.50;99.90;;;;;;4956892;28;20055;-76
2023/12/10 03:14:16;;;;;;;83.78;40.30;;;2.30;99.90;;;;;;4953886;28;20038;-76
2023/12/10 03:16:43;;;;;;;80.95;37.85;;;2.20;99.90;;;;;;4957150;28;20061;-76
2023/12/10 03:19:09;;;;;;;83.85;43.25;;;2.20;99.90;;;;;;4956317;28;20106;-76
2023/12/10 03:21:35;;;;;;;90.25;47.40;;;2.10;99.90;;;;;;4958510;28;20031;-78
2023/12/10 03:24:01;;;;;;;109.78;58.53;;;2.20;99.90;;;;;;4954710;28;20082;-79
2023/12/10 03:26:27;;;;;;;94.32;47.85;;;2.20;99.90;;;;;;4955040;28;20113;-74
2023/12/10 03:28:53;;;;;;;84.97;40.67;;;2.20;99.90;;;;;;4953218;28;20454;-75
2023/12/10 03:31:19;;;;;;;76.03;40.15;;;2.30;99.90;;;;;;4958638;28;20046;-76
2023/12/10 03:33:45;;;;;;;80.40;41.80;;;2.40;99.90;;;;;;4957899;28;20098;-79
2023/12/10 03:36:11;;;;;;;86.90;41.53;;;2.30;99.90;;;;;;4957488;28;20035;-78
2023/12/10 03:38:37;;;;;;;76.65;41.95;;;2.30;99.90;;;;;;4952994;28;20405;-77
2023/12/10 03:41:03;;;;;;;89.50;39.25;;;2.40;99.90;;;;;;4958474;28;20061;-78
2023/12/10 03:43:29;;;;;;;87.55;39.80;;;2.30;99.90;;;;;;4956491;28;20016;-77
2023/12/10 03:45:55;;;;;;;76.57;38.40;;;2.40;99.90;;;;;;4956347;28;20434;-77
2023/12/10 03:48:20;;;;;;;77.25;42.22;;;2.40;99.90;;;;;;4953708;28;20526;-79
2023/12/10 03:50:46;;;;;;;78.07;45.10;;;2.50;99.90;;;;;;4952930;28;20106;-75
2023/12/10 03:53:12;;;;;;;85.25;46.10;;;2.50;99.90;;;;;;4957754;28;20062;-78
2023/12/10 03:55:38;;;;;;;91.65;49.38;;;2.50;99.90;;;;;;4961541;28;20046;-78
2023/12/10 03:58:04;;;;;;;93.45;50.88;;;2.50;99.90;;;;;;4958208;28;20489;-79
2023/12/10 04:00:30;;;;;;;77.80;39.45;;;2.50;99.90;;;;;;4959621;28;20027;-79
2023/12/10 04:02:56;;;;;;;76.65;33.28;;;2.50;99.90;;;;;;4962701;28;20378;-76
2023/12/10 04:05:22;;;;;;;61.78;31.80;;;2.50;99.90;;;;;;4958688;28;20101;-76
2023/12/10 04:07:48;;;;;;;62.40;32.35;;;2.50;99.90;;;;;;4959453;28;20475;-78
2023/12/10 04:10:14;;;;;;;62.35;29.60;;;2.50;99.90;;;;;;4962578;28;20170;-78
2023/12/10 04:12:40;;;;;;;61.88;30.60;;;2.50;99.90;;;;;;4976418;28;20093;-78
2023/12/10 04:15:07;;;;;;;66.07;30.00;;;2.40;99.90;;;;;;4976399;28;20140;-78
2023/12/10 04:17:33;;;;;;;66.57;32.45;;;2.40;99.90;;;;;;4976380;28;20023;-78
2023/12/10 04:19:58;;;;;;;65.95;33.25;;;2.40;99.90;;;;;;4974801;28;20052;-76
2023/12/10 04:22:26;;;;;;;67.70;33.22;;;2.40;99.90;;;;;;4987915;28;20027;-78
2023/12/10 04:24:52;;;;;;;71.45;33.00;;;2.40;99.90;;;;;;4975979;28;20058;-78
2023/12/10 04:27:18;;;;;;;84.35;40.17;;;2.40;99.90;;;;;;4976576;28;20055;-78
2023/12/10 04:29:44;;;;;;;78.13;39.80;;;2.50;99.90;;;;;;4976145;28;20034;-78
2023/12/10 04:32:10;;;;;;;77.15;37.25;;;2.50;99.90;;;;;;4976396;28;20034;-78
2023/12/10 04:34:36;;;;;;;72.15;36.10;;;2.50;99.90;;;;;;4958716;28;20117;-79
2023/12/10 04:37:02;;;;;;;72.20;33.70;;;2.40;99.90;;;;;;4976145;28;20114;-78
2023/12/10 04:39:28;;;;;;;59.28;29.50;;;2.40;99.90;;;;;;4975642;28;20034;-78
2023/12/10 04:41:54;;;;;;;64.47;32.30;;;2.30;99.90;;;;;;4976078;28;20046;-79
2023/12/10 04:44:20;;;;;;;73.38;31.23;;;2.20;99.90;;;;;;4975654;28;20109;-78
2023/12/10 04:46:46;;;;;;;57.08;30.60;;;2.20;99.90;;;;;;4976045;28;20038;-79
2023/12/10 04:49:12;;;;;;;63.78;29.77;;;2.20;99.90;;;;;;4975827;28;20030;-78
2023/12/10 04:51:38;;;;;;;68.75;33.22;;;2.20;99.90;;;;;;4975535;28;20489;-79
2023/12/10 04:54:04;;;;;;;66.97;31.52;;;2.10;99.90;;;;;;4975516;28;20489;-77
2023/12/10 04:56:30;;;;;;;66.72;33.15;;;2.10;99.90;;;;;;4975858;28;20081;-78
2023/12/10 04:58:56;;;;;;;65.03;30.73;;;2.10;99.90;;;;;;4975446;28;20027;-77
2023/12/10 05:01:22;;;;;;;64.22;32.85;;;2.10;99.90;;;;;;4975521;28;20485;-78
2023/12/10 05:03:48;;;;;;;62.17;29.40;;;2.10;99.90;;;;;;4975119;28;20034;-78
2023/12/10 05:06:14;;;;;;;56.92;29.90;;;2.00;99.90;;;;;;4974827;28;20034;-76
2023/12/10 05:08:40;;;;;;;61.70;33.60;;;1.90;99.90;;;;;;4975235;28;20035;-78
2023/12/10 05:11:06;;;;;;;63.10;30.38;;;1.70;99.90;;;;;;4975162;28;20046;-76
2023/12/10 05:13:32;;;;;;;72.63;34.72;;;1.60;99.90;;;;;;4975366;28;20113;-77
2023/12/10 05:15:58;;;;;;;65.70;34.15;;;1.50;99.90;;;;;;4974112;28;20082;-78
2023/12/10 05:18:24;;;;;;;82.40;33.67;;;1.60;99.90;;;;;;4972692;28;20113;-77
2023/12/10 05:20:50;;;;;;;61.97;33.15;;;1.50;99.90;;;;;;4975204;28;20110;-76
2023/12/10 05:23:16;;;;;;;69.13;35.13;;;1.60;99.90;;;;;;4974692;28;20516;-76
2023/12/10 05:25:42;;;;;;;67.43;34.88;;;1.70;99.90;;;;;;4974948;28;20027;-77
2023/12/10 05:28:08;;;;;;;67.55;34.85;;;1.70;99.90;;;;;;4974602;28;20073;-77
2023/12/10 05:30:34;;;;;;;67.28;34.40;;;1.80;99.90;;;;;;4974958;28;20022;-77
2023/12/10 05:32:59;;;;;;;64.13;33.65;;;1.80;99.90;;;;;;4974935;28;20027;-75
2023/12/10 05:35:25;;;;;;;65.43;34.38;;;1.80;99.90;;;;;;4975178;28;20015;-79
2023/12/10 05:37:51;;;;;;;64.55;31.65;;;1.90;99.90;;;;;;4974421;28;20031;-79
2023/12/10 05:40:17;;;;;;;66.68;32.70;;;1.90;99.90;;;;;;4974625;28;20034;-79
2023/12/10 05:42:43;;;;;;;57.20;30.42;;;2.00;99.90;;;;;;4973493;28;20056;-78
2023/12/10 05:45:09;;;;;;;55.15;28.52;;;2.00;99.90;;;;;;4974678;28;20027;-79
2023/12/10 05:47:35;;;;;;;60.78;29.60;;;1.90;99.90;;;;;;4974670;28;20057;-79
2023/12/10 05:50:01;;;;;;;59.15;29.73;;;1.90;99.90;;;;;;4964227;28;20467;-79
2023/12/10 05:52:27;;;;;;;52.67;29.27;;;1.90;99.90;;;;;;4974859;28;20035;-79
2023/12/10 05:54:53;;;;;;;55.03;29.95;;;2.00;99.90;;;;;;4974227;28;20426;-78
2023/12/10 05:57:19;;;;;;;57.50;31.35;;;2.00;99.90;;;;;;4974438;28;20065;-78
2023/12/10 05:59:45;;;;;;;63.90;33.13;;;2.10;99.90;;;;;;4974169;28;20054;-76
2023/12/10 06:02:11;;;;;;;66.05;33.35;;;2.10;99.90;;;;;;4974425;28;20402;-78
2023/12/10 06:04:37;;;;;;;59.95;30.00;;;2.20;99.90;;;;;;4974458;28;20031;-79
2023/12/10 06:07:03;;;;;;;62.35;32.42;;;2.20;99.90;;;;;;4974040;28;20394;-79
2023/12/10 06:09:29;;;;;;;62.30;32.65;;;2.20;99.90;;;;;;4973780;28;20078;-78
2023/12/10 06:11:55;;;;;;;59.25;31.95;;;2.20;99.90;;;;;;4973761;28;20042;-78
2023/12/10 06:14:21;;;;;;;54.92;30.90;;;2.30;99.90;;;;;;4973885;28;20031;-79
2023/12/10 06:16:47;;;;;;;59.70;31.45;;;2.30;99.90;;;;;;4973764;28;20034;-75
2023/12/10 06:19:12;;;;;;;66.80;31.00;;;2.40;99.90;;;;;;4973079;28;20027;-75
2023/12/10 06:21:38;;;;;;;59.65;33.63;;;2.30;99.90;;;;;;4956541;28;20098;-76
2023/12/10 06:24:06;;;;;;;58.33;32.15;;;2.30;99.90;;;;;;4974078;28;20031;-74
2023/12/10 06:26:32;;;;;;;59.38;30.75;;;2.30;99.90;;;;;;4973745;28;20039;-79
2023/12/10 06:28:58;;;;;;;65.07;33.70;;;2.30;99.90;;;;;;4973925;28;20023;-79
2023/12/10 06:31:24;;;;;;;61.13;34.05;;;2.30;99.90;;;;;;4972486;28;20140;-77
2023/12/10 06:33:50;;;;;;;70.85;35.92;;;2.10;99.90;;;;;;4974057;28;20447;-79
2023/12/10 06:36:16;;;;;;;61.15;33.70;;;2.00;99.90;;;;;;4973526;28;20041;-77
2023/12/10 06:38:42;;;;;;;59.47;34.15;;;2.00;99.90;;;;;;4973166;28;20034;-76
2023/12/10 06:41:07;;;;;;;58.67;31.20;;;2.00;99.90;;;;;;4973165;28;20434;-78
2023/12/10 06:43:33;;;;;;;64.05;33.30;;;1.70;99.90;;;;;;4973320;28;20062;-74
2023/12/10 06:45:59;;;;;;;55.78;30.60;;;1.90;99.90;;;;;;4971914;28;20498;-77
2023/12/10 06:48:25;;;;;;;59.75;34.85;;;2.00;99.90;;;;;;4955618;28;20382;-78
2023/12/10 06:50:53;;;;;;;60.00;31.13;;;2.00;99.90;;;;;;4969807;28;20023;-77
2023/12/10 06:53:19;;;;;;;55.42;29.90;;;2.00;99.90;;;;;;4973141;28;20059;-75
2023/12/10 06:55:46;;;;;;;55.70;28.58;;;2.00;99.90;;;;;;4973868;28;20109;-76
2023/12/10 06:58:12;;;;;;;49.28;29.10;;;2.10;99.90;;;;;;4973401;28;20027;-77
2023/12/10 07:00:38;;;;;;;49.40;29.02;;;2.20;99.90;;;;;;4972905;28;20409;-76
2023/12/10 07:03:03;;;;;;;52.85;28.83;;;2.40;99.90;;;;;;4973296;28;20044;-79
2023/12/10 07:05:29;;;;;;;59.67;33.65;;;2.50;99.90;;;;;;4949112;28;20035;-79
2023/12/10 07:07:55;;;;;;;56.33;32.88;;;2.30;99.90;;;;;;4973409;28;20459;-78
2023/12/10 07:10:21;;;;;;;62.60;31.70;;;2.40;99.90;;;;;;4972539;28;20109;-79
2023/12/10 07:12:51;;;;;;;49.85;28.23;;;2.20;99.90;;;;;;4972709;28;20039;-76
2023/12/10 07:15:17;;;;;;;85.22;42.15;;;2.30;99.90;;;;;;4972498;28;20034;-75
2023/12/10 07:17:43;;;;;;;67.75;34.45;;;2.10;99.90;;;;;;4971101;28;20114;-78
2023/12/10 07:20:09;;;;;;;58.08;32.55;;;2.10;99.90;;;;;;4962387;28;20027;-74
2023/12/10 07:22:35;;;;;;;73.65;38.88;;;2.00;99.90;;;;;;4953968;29;20046;-79
2023/12/10 07:25:04;;;;;;;75.80;41.90;;;2.00;99.90;;;;;;4954548;28;20035;-79
2023/12/10 07:27:31;;;;;;;67.30;38.97;;;1.90;99.90;;;;;;4972840;28;20043;-80
2023/12/10 07:29:57;;;;;;;57.70;32.58;;;1.80;99.90;;;;;;4973296;28;20030;-78
2023/12/10 07:32:23;;;;;;;60.95;33.33;;;1.80;99.90;;;;;;4973110;28;20446;-76
2023/12/10 07:34:49;;;;;;;65.68;40.15;;;1.90;99.90;;;;;;4973151;28;20022;-75
2023/12/10 07:37:15;;;;;;;57.72;28.27;;;1.90;99.90;;;;;;4972805;28;20027;-77
2023/12/10 07:39:41;;;;;;;52.00;30.30;;;1.80;99.90;;;;;;4960177;28;20039;-77
2023/12/10 07:42:07;;;;;;;54.38;31.48;;;2.00;99.90;;;;;;4972611;28;20077;-76
2023/12/10 07:44:33;;;;;;;52.58;30.38;;;2.00;99.90;;;;;;4972645;28;20034;-77
2023/12/10 07:46:59;;;;;;;55.67;30.30;;;2.00;99.90;;;;;;4972959;28;20034;-76
2023/12/10 07:49:25;;;;;;;51.50;28.80;;;2.10;99.90;;;;;;4979410;28;20034;-74
2023/12/10 07:51:51;;;;;;;51.78;29.60;;;2.20;99.90;;;;;;4979964;28;20058;-80
2023/12/10 07:54:17;;;;;;;49.70;26.23;;;2.20;99.90;;;;;;4982005;28;20026;-76
2023/12/10 07:56:43;;;;;;;53.75;28.30;;;2.40;99.90;;;;;;4982342;28;20414;-80
2023/12/10 07:59:09;;;;;;;54.35;30.55;;;2.40;99.90;;;;;;4982407;28;20023;-80
2023/12/10 08:01:35;;;;;;;53.50;30.45;;;2.30;99.90;;;;;;4981734;28;20027;-81
2023/12/10 08:04:01;;;;;;;69.28;40.80;;;2.30;99.90;;;;;;4978635;28;20027;-77
2023/12/10 08:06:27;;;;;;;76.38;44.58;;;2.40;99.90;;;;;;4977844;28;20058;-74
2023/12/10 08:08:53;;;;;;;81.03;43.72;;;2.50;99.90;;;;;;4981956;28;20023;-75
2023/12/10 08:11:19;;;;;;;66.07;37.38;;;2.60;99.90;;;;;;4978716;28;20043;-81
2023/12/10 08:13:45;;;;;;;58.78;32.38;;;2.70;99.90;;;;;;4977417;28;20031;-78
2023/12/10 08:16:10;;;;;;;64.35;33.17;;;2.60;99.90;;;;;;4975914;28;20031;-78
2023/12/10 08:18:36;;;;;;;53.55;30.75;;;2.80;99.90;;;;;;4973123;28;20386;-76
2023/12/10 08:21:05;;;;;;;55.30;31.33;;;2.90;99.90;;;;;;4973332;28;20027;-75
2023/12/10 08:23:31;;;;;;;52.97;31.73;;;2.80;99.90;;;;;;4973450;28;20170;-75
2023/12/10 08:25:57;;;;;;;55.22;30.67;;;3.00;99.90;;;;;;4972987;28;20477;-78
2023/12/10 08:28:23;;;;;;;59.15;32.90;;;3.10;99.90;;;;;;4972801;28;20039;-76
2023/12/10 08:30:48;;;;;;;56.55;32.03;;;3.20;99.90;;;;;;4975619;28;20355;-77
2023/12/10 08:33:14;;;;;;;69.97;37.42;;;3.30;99.90;;;;;;4971966;28;20058;-78
2023/12/10 08:35:41;;;;;;;69.30;43.60;;;3.40;99.90;;;;;;4977458;28;20015;-75
2023/12/10 08:38:07;;;;;;;71.30;42.15;;;3.40;99.90;;;;;;4987046;28;20033;-78
2023/12/10 08:40:33;;;;;;;64.43;40.63;;;3.50;99.90;;;;;;4995523;28;20110;-80
2023/12/10 08:42:59;;;;;;;61.60;37.53;;;3.60;99.90;;;;;;4979159;28;20039;-79
2023/12/10 08:45:25;;;;;;;63.15;38.38;;;3.60;99.90;;;;;;4976348;28;20023;-78
2023/12/10 08:47:51;;;;;;;55.38;34.40;;;3.60;99.90;;;;;;4990214;28;20453;-75
2023/12/10 08:50:16;;;;;;;55.45;32.08;;;3.60;99.90;;;;;;4975983;28;20019;-75
2023/12/10 08:52:42;;;;;;;53.42;30.65;;;3.10;99.90;;;;;;4974613;28;20034;-78
2023/12/10 08:55:09;;;;;;;48.28;30.52;;;3.00;99.90;;;;;;4977921;28;20031;-76
2023/12/10 08:57:35;;;;;;;55.13;32.83;;;3.20;99.90;;;;;;4984572;28;20499;-81
2023/12/10 09:00:01;;;;;;;63.38;34.58;;;3.40;99.90;;;;;;4978404;28;20055;-77
2023/12/10 09:02:28;;;;;;;71.10;39.88;;;3.40;99.90;;;;;;4966648;28;20095;-74
2023/12/10 09:04:54;;;;;;;132.52;76.53;;;3.50;99.90;;;;;;4986648;28;20033;-75
2023/12/10 09:07:21;;;;;;;92.13;51.13;;;3.20;99.90;;;;;;4984306;28;20022;-82
2023/12/10 09:09:46;;;;;;;155.57;91.47;;;3.30;99.90;;;;;;4989177;28;20462;-73
2023/12/10 09:12:12;;;;;;;135.93;81.18;;;3.40;99.90;;;;;;4989149;28;20035;-79
2023/12/10 09:14:38;;;;;;;188.82;109.32;;;3.40;99.90;;;;;;4987332;28;20030;-83
2023/12/10 09:17:04;;;;;;;98.85;53.55;;;3.40;99.90;;;;;;4986081;28;20046;-76
2023/12/10 09:19:31;;;;;;;71.55;39.28;;;3.30;99.90;;;;;;4985538;28;20397;-81
2023/12/10 09:21:57;;;;;;;72.65;40.42;;;3.60;99.90;;;;;;4984580;28;20038;-77
2023/12/10 09:24:23;;;;;;;53.13;30.77;;;3.60;99.90;;;;;;4986905;28;20038;-82
2023/12/10 09:26:49;;;;;;;57.03;32.35;;;3.70;99.90;;;;;;4985516;28;20054;-79
2023/12/10 09:29:16;;;;;;;62.97;37.45;;;3.60;99.90;;;;;;4984394;28;20054;-82
2023/12/10 09:31:42;;;;;;;67.43;41.72;;;3.50;99.90;;;;;;4983186;28;20019;-81
2023/12/10 09:34:09;;;;;;;58.80;32.80;;;3.40;99.90;;;;;;4981983;28;20031;-81
2023/12/10 09:36:35;;;;;;;62.53;35.15;;;3.30;99.90;;;;;;4983056;28;20070;-80
2023/12/10 09:39:01;;;;;;;59.63;32.72;;;3.10;99.90;;;;;;4980105;28;20045;-75
2023/12/10 09:41:27;;;;;;;72.10;41.42;;;2.90;99.90;;;;;;4982680;28;20387;-81
2023/12/10 09:43:53;;;;;;;51.95;29.95;;;2.90;99.90;;;;;;4982426;28;20034;-77
2023/12/10 09:46:21;;;;;;;64.63;37.92;;;2.90;99.90;;;;;;4979465;28;20252;-80
2023/12/10 09:48:48;;;;;;;81.55;43.35;;;3.00;99.90;;;;;;4975362;28;20105;-80
2023/12/10 09:51:14;;;;;;;65.95;38.72;;;3.00;99.90;;;;;;4977278;28;20023;-80
2023/12/10 09:53:41;;;;;;;55.92;31.75;;;2.90;99.90;;;;;;4978948;28;20027;-81
2023/12/10 09:56:08;;;;;;;66.50;38.03;;;3.00;99.90;;;;;;4974506;28;20031;-79
2023/12/10 09:58:34;;;;;;;58.63;35.17;;;2.90;99.90;;;;;;4974797;28;20023;-77
2023/12/10 10:01:04;;;;;;;59.78;33.28;;;3.00;99.90;;;;;;4974359;28;20026;-78
2023/12/10 10:03:33;;;;;;;64.38;36.45;;;2.90;99.90;;;;;;4957930;28;20482;-78
2023/12/10 10:05:59;;;;;;;50.72;30.33;;;3.00;99.90;;;;;;4974707;28;20558;-81
2023/12/10 10:08:26;;;;;;;55.90;31.50;;;3.10;99.90;;;;;;4974187;28;20114;-80
2023/12/10 10:10:52;;;;;;;55.38;34.78;;;3.20;99.90;;;;;;4974185;28;20043;-81
2023/12/10 10:13:18;;;;;;;62.58;37.08;;;3.20;99.90;;;;;;4974108;28;20458;-79
2023/12/10 10:15:44;;;;;;;56.83;34.10;;;3.30;99.90;;;;;;4974385;28;20061;-76
2023/12/10 10:18:10;;;;;;;55.08;33.10;;;3.40;99.90;;;;;;4974974;28;20031;-77
2023/12/10 10:20:38;;;;;;;62.63;35.08;;;3.50;99.90;;;;;;4975030;28;20130;-78
2023/12/10 10:23:05;;;;;;;53.03;30.10;;;3.40;99.90;;;;;;4974528;28;20047;-77
2023/12/10 10:25:31;;;;;;;58.40;32.65;;;3.50;99.90;;;;;;4974440;28;20085;-78
2023/12/10 10:27:58;;;;;;;59.35;33.05;;;3.60;99.90;;;;;;4975657;28;20034;-74
2023/12/10 10:30:24;;;;;;;58.67;35.10;;;3.50;99.90;;;;;;4973001;28;20042;-76
2023/12/10 10:32:54;;;;;;;55.08;33.58;;;3.50;99.90;;;;;;4980152;28;20026;-75
2023/12/10 10:35:20;;;;;;;52.15;33.30;;;3.50;99.90;;;;;;4957986;28;20027;-76
2023/12/10 10:37:48;;;;;;;52.90;30.20;;;3.60;99.90;;;;;;4972408;28;20031;-74
2023/12/10 10:40:14;;;;;;;57.17;35.13;;;3.60;99.90;;;;;;4980124;28;20377;-74
2023/12/10 10:42:39;;;;;;;44.42;28.83;;;3.70;99.90;;;;;;4965115;28;20043;-74
2023/12/10 10:45:07;;;;;;;45.05;27.52;;;3.70;99.90;;;;;;4969542;28;20126;-75
2023/12/10 10:47:35;;;;;;;47.22;27.25;;;3.70;99.90;;;;;;4953295;28;20025;-74
2023/12/10 10:50:03;;;;;;;44.40;25.30;;;3.60;99.90;;;;;;4956175;28;20422;-76
2023/12/10 10:52:32;;;;;;;44.63;26.40;;;3.60;99.90;;;;;;4958827;28;20042;-77
2023/12/10 10:54:59;;;;;;;47.33;27.73;;;3.60;99.90;;;;;;4954483;28;20031;-75
2023/12/10 10:57:36;;;;;;;56.05;32.00;;;3.70;99.90;;;;;;4954531;28;20038;-75
2023/12/10 11:00:17;;;;;;;48.83;30.08;;;3.60;99.90;;;;;;4953721;28;20030;-74
2023/12/10 11:02:47;;;;;;;50.33;30.50;;;3.70;99.90;;;;;;4959817;28;20054;-79
2023/12/10 11:05:13;;;;;;;54.22;30.92;;;3.70;99.90;;;;;;4959582;28;20020;-75
2023/12/10 11:07:42;;;;;;;42.42;26.00;;;3.80;99.90;;;;;;4958706;28;20474;-73
2023/12/10 11:10:08;;;;;;;39.03;25.60;;;3.80;99.90;;;;;;4956359;28;20071;-77
2023/12/10 11:12:44;;;;;;;37.45;23.58;;;3.90;99.90;;;;;;4955535;28;20114;-78
2023/12/10 11:15:13;;;;;;;45.40;26.98;;;3.80;99.90;;;;;;4968886;28;20054;-77
2023/12/10 11:17:54;;;;;;;47.80;27.85;;;3.80;99.90;;;;;;4953962;28;20031;-78
2023/12/10 11:20:40;;;;;;;46.33;29.10;;;3.90;99.90;;;;;;4971291;28;20045;-77
2023/12/10 11:23:07;;;;;;;41.40;24.73;;;3.90;99.90;;;;;;4973263;28;20073;-76
2023/12/10 11:25:34;;;;;;;45.97;28.30;;;4.00;99.90;;;;;;4973146;28;20340;-76
2023/12/10 11:28:14;;;;;;;53.03;30.67;;;4.10;99.90;;;;;;4971348;28;20029;-77
2023/12/10 11:30:42;;;;;;;49.13;30.30;;;4.20;99.90;;;;;;4972232;28;20031;-75
2023/12/10 11:33:09;;;;;;;47.38;30.55;;;4.30;99.90;;;;;;4972200;28;20042;-76
2023/12/10 11:35:35;;;;;;;48.15;30.40;;;4.40;99.90;;;;;;4973231;28;20150;-76
2023/12/10 11:38:02;;;;;;;55.00;33.50;;;4.50;99.90;;;;;;4972883;28;20446;-77
2023/12/10 11:40:28;;;;;;;44.92;30.15;;;4.40;99.90;;;;;;4972990;28;20038;-77
2023/12/10 11:43:05;;;;;;;43.53;29.15;;;4.50;99.90;;;;;;4972370;28;20394;-76
2023/12/10 11:45:31;;;;;;;43.33;26.92;;;4.60;99.90;;;;;;4972928;28;20479;-75
2023/12/10 11:47:57;;;;;;;38.45;26.52;;;4.60;99.90;;;;;;4972706;28;20055;-74
2023/12/10 11:50:23;;;;;;;47.92;28.23;;;4.60;99.90;;;;;;4972404;28;20023;-75
2023/12/10 11:52:50;;;;;;;45.33;28.77;;;4.60;99.90;;;;;;4972707;28;20034;-73
2023/12/10 11:55:16;;;;;;;48.67;30.45;;;4.60;99.90;;;;;;4972834;28;20086;-77
2023/12/10 11:57:43;;;;;;;46.20;29.65;;;4.60;99.90;;;;;;4972661;28;20026;-77
2023/12/10 12:00:11;;;;;;;49.42;30.35;;;4.50;99.90;;;;;;4963591;28;20110;-76
2023/12/10 12:02:44;;;;;;;50.13;32.53;;;4.50;99.90;;;;;;4972832;28;20425;-74
2023/12/10 12:05:15;;;;;;;51.55;32.72;;;4.50;99.90;;;;;;4972248;28;20102;-79
2023/12/10 12:07:56;;;;;;;53.90;34.83;;;4.60;99.90;;;;;;4973032;28;20426;-75
2023/12/10 12:10:22;;;;;;;53.13;32.10;;;4.60;99.90;;;;;;4971702;28;20078;-76
2023/12/10 12:12:48;;;;;;;58.70;36.50;;;4.50;99.90;;;;;;4973114;28;20093;-77
2023/12/10 12:15:15;;;;;;;61.45;35.92;;;4.40;99.90;;;;;;4967681;28;20102;-73
2023/12/10 12:17:42;;;;;;;54.00;35.15;;;4.40;99.90;;;;;;4976328;28;20030;-75
2023/12/10 12:20:28;;;;;;;56.70;34.47;;;4.40;99.90;;;;;;4976187;28;20023;-76
2023/12/10 12:22:54;;;;;;;51.78;33.83;;;4.50;99.90;;;;;;4976049;28;20039;-72
2023/12/10 12:25:24;;;;;;;52.47;33.22;;;4.40;99.90;;;;;;4975509;28;20054;-76
2023/12/10 12:27:50;;;;;;;46.97;31.30;;;4.40;99.90;;;;;;4976071;28;20035;-74
2023/12/10 12:30:17;;;;;;;51.08;32.95;;;4.30;99.90;;;;;;4975937;28;20069;-75
2023/12/10 12:32:43;;;;;;;50.85;31.85;;;4.30;99.90;;;;;;4976095;28;20023;-74